Time;durP1;ratioP1;P1;durP2;ratioP2;P2;SDS_P1;SDS_P2;PMS_P1;PMS_P2;Temp;Humidity;BMP_temperature;BMP_pressure;BME280_temperature;BME280_humidity;BME280_pressure;Samples;Min_cycle;Max_cycle;Signal;HPM_P1;HPM_P2
2021/06/11 00:01:14;;;;;;;2.13;1.92;;;21.60;59.40;;;;;;5033111;28;20026;-96
2021/06/11 00:03:40;;;;;;;2.05;1.80;;;21.60;59.50;;;;;;5017750;28;20113;-95
2021/06/11 00:06:06;;;;;;;3.08;2.40;;;21.60;59.70;;;;;;5042266;28;20013;-94
2021/06/11 00:08:32;;;;;;;2.80;2.20;;;21.60;59.80;;;;;;5004844;28;20022;-93
2021/06/11 00:10:57;;;;;;;3.03;2.25;;;21.50;60.00;;;;;;5013914;28;20477;-94
2021/06/11 00:13:23;;;;;;;3.17;2.60;;;21.50;60.00;;;;;;5016142;28;20033;-93
2021/06/11 00:15:49;;;;;;;3.78;2.50;;;21.50;60.20;;;;;;4999343;28;20030;-93
2021/06/11 00:18:15;;;;;;;3.25;2.42;;;21.40;60.20;;;;;;5027190;28;20816;-92
2021/06/11 00:20:41;;;;;;;3.30;2.58;;;21.40;60.40;;;;;;5016842;28;20048;-93
2021/06/11 00:23:06;;;;;;;3.15;2.40;;;21.40;60.70;;;;;;5034548;28;20036;-93
2021/06/11 00:25:32;;;;;;;3.17;2.15;;;21.30;60.70;;;;;;5036615;28;20048;-92
2021/06/11 00:28:01;;;;;;;2.53;2.03;;;21.30;60.80;;;;;;5038784;28;20038;-93
2021/06/11 00:30:29;;;;;;;2.70;2.17;;;21.20;60.90;;;;;;5023739;28;20044;-92
2021/06/11 00:32:55;;;;;;;3.92;2.42;;;21.20;61.00;;;;;;5040940;28;20044;-92
2021/06/11 00:35:21;;;;;;;2.40;2.10;;;21.20;61.20;;;;;;5025109;28;20021;-93
2021/06/11 00:37:47;;;;;;;2.10;1.90;;;21.10;61.50;;;;;;5043448;28;20051;-92
2021/06/11 00:40:14;;;;;;;1.88;1.67;;;21.00;61.50;;;;;;5038466;28;20025;-96
2021/06/11 00:42:39;;;;;;;2.17;1.98;;;21.00;61.60;;;;;;5037824;28;20021;-96
2021/06/11 00:45:08;;;;;;;2.67;1.92;;;20.90;61.50;;;;;;5046329;28;20013;-96
2021/06/11 00:47:34;;;;;;;2.42;2.08;;;20.90;61.50;;;;;;5046985;28;20036;-96
2021/06/11 00:49:59;;;;;;;2.35;2.15;;;20.90;61.60;;;;;;5037422;28;20021;-95
2021/06/11 00:52:25;;;;;;;2.97;2.35;;;20.90;61.70;;;;;;5032908;28;20029;-96
2021/06/11 00:54:57;;;;;;;2.13;1.77;;;20.90;61.70;;;;;;5020752;28;20426;-96
2021/06/11 00:57:23;;;;;;;2.67;2.00;;;20.90;61.90;;;;;;5039881;28;20021;-94
2021/06/11 00:59:49;;;;;;;2.28;2.08;;;20.80;62.00;;;;;;5035576;28;20021;-94
2021/06/11 01:02:15;;;;;;;3.55;2.20;;;20.80;62.10;;;;;;5035606;28;20032;-94
2021/06/11 01:04:41;;;;;;;2.42;2.22;;;20.80;62.20;;;;;;5017501;28;20025;-91
2021/06/11 01:07:07;;;;;;;3.97;2.53;;;20.70;62.40;;;;;;5017486;28;20059;-93
2021/06/11 01:09:36;;;;;;;2.90;2.33;;;20.70;62.50;;;;;;5034918;28;20371;-94
2021/06/11 01:12:03;;;;;;;2.17;1.98;;;20.70;62.50;;;;;;5035164;28;20079;-93
2021/06/11 01:14:30;;;;;;;2.42;2.15;;;20.60;62.70;;;;;;5035192;28;20041;-94
2021/06/11 01:16:55;;;;;;;3.22;2.70;;;20.60;63.00;;;;;;5034978;28;20431;-94
2021/06/11 01:19:29;;;;;;;2.60;2.40;;;20.60;63.10;;;;;;5016887;28;20055;-96
2021/06/11 01:22:02;;;;;;;3.15;2.38;;;20.60;63.30;;;;;;5014712;28;20068;-95
2021/06/11 01:24:33;;;;;;;3.60;2.40;;;20.60;63.30;;;;;;5015630;28;20026;-96
2021/06/11 01:26:59;;;;;;;3.58;2.60;;;20.60;63.30;;;;;;5032513;28;20044;-95
2021/06/11 01:29:27;;;;;;;2.50;2.28;;;20.60;63.20;;;;;;5035028;28;20022;-95
2021/06/11 01:32:02;;;;;;;2.75;2.42;;;20.50;63.30;;;;;;5017681;28;20041;-96
2021/06/11 01:34:31;;;;;;;3.00;2.30;;;20.60;63.30;;;;;;5034770;28;20045;-96
2021/06/11 01:37:04;;;;;;;3.00;2.70;;;20.50;63.20;;;;;;5018171;28;20024;-95
2021/06/11 01:39:32;;;;;;;3.75;2.55;;;20.60;63.30;;;;;;5017124;28;20037;-95
2021/06/11 01:41:59;;;;;;;2.35;2.15;;;20.60;63.40;;;;;;5034759;28;20108;-96
2021/06/11 01:44:26;;;;;;;2.70;2.38;;;20.50;63.30;;;;;;5034436;28;20021;-95
2021/06/11 01:46:55;;;;;;;3.65;2.33;;;20.50;63.40;;;;;;5034714;28;20164;-96
2021/06/11 01:49:23;;;;;;;2.70;2.50;;;20.50;63.60;;;;;;5034334;28;20014;-95
2021/06/11 01:51:49;;;;;;;3.50;2.80;;;20.50;63.60;;;;;;5034389;28;20537;-95
2021/06/11 01:54:15;;;;;;;2.92;2.40;;;20.50;63.70;;;;;;5027070;28;20037;-96
2021/06/11 01:56:43;;;;;;;2.80;2.15;;;20.40;63.70;;;;;;5029355;28;20026;-96
2021/06/11 01:59:09;;;;;;;2.45;2.25;;;20.40;63.90;;;;;;5012417;28;20034;-96
2021/06/11 02:01:35;;;;;;;2.65;2.40;;;20.40;64.10;;;;;;5046089;28;20013;-96
2021/06/11 02:04:02;;;;;;;3.45;2.72;;;20.30;64.90;;;;;;5038578;28;20602;-95
2021/06/11 02:06:28;;;;;;;3.28;2.40;;;20.30;64.40;;;;;;5017581;28;20028;-96
2021/06/11 02:08:55;;;;;;;2.83;2.50;;;20.30;64.50;;;;;;5020325;28;20021;-96
2021/06/11 02:11:23;;;;;;;3.00;2.58;;;20.20;64.50;;;;;;5051390;28;20079;-96
2021/06/11 02:13:51;;;;;;;3.58;2.67;;;20.30;64.70;;;;;;5025153;28;20105;-96
2021/06/11 02:16:21;;;;;;;3.00;2.70;;;20.30;64.70;;;;;;5050016;28;20149;-96
2021/06/11 02:19:10;;;;;;;4.05;2.67;;;20.30;64.70;;;;;;5055911;28;20041;-96
2021/06/11 02:21:40;;;;;;;3.67;2.83;;;20.30;64.60;;;;;;5038901;28;20073;-96
2021/06/11 02:24:06;;;;;;;3.40;2.90;;;20.30;64.60;;;;;;5024382;28;20615;-95
2021/06/11 02:26:32;;;;;;;2.78;2.35;;;20.30;64.70;;;;;;5022660;28;20025;-93
2021/06/11 02:28:58;;;;;;;3.63;2.95;;;20.30;64.70;;;;;;5015531;28;20026;-94
2021/06/11 02:31:23;;;;;;;3.95;2.80;;;20.20;65.00;;;;;;5035206;28;20025;-96
2021/06/11 02:33:49;;;;;;;4.32;2.50;;;20.20;65.20;;;;;;5038593;28;20030;-95
2021/06/11 02:36:15;;;;;;;3.40;2.78;;;20.10;65.20;;;;;;5023008;28;20044;-96
2021/06/11 02:38:40;;;;;;;3.80;3.17;;;20.10;65.20;;;;;;5022101;28;20021;-96
2021/06/11 02:41:10;;;;;;;3.30;2.88;;;20.10;65.30;;;;;;5038304;28;20025;-95
2021/06/11 02:43:40;;;;;;;3.60;3.10;;;20.10;65.30;;;;;;5039893;28;20089;-95
2021/06/11 02:46:25;;;;;;;3.20;2.90;;;20.00;65.50;;;;;;5052436;28;20029;-96
2021/06/11 02:48:58;;;;;;;5.70;3.17;;;20.00;65.50;;;;;;5048077;28;20045;-94
2021/06/11 02:52:01;;;;;;;5.07;3.00;;;19.90;65.60;;;;;;5052287;28;20020;-94
2021/06/11 02:54:32;;;;;;;3.78;3.30;;;19.80;65.60;;;;;;4952884;29;20043;-94
2021/06/11 02:57:44;;;;;;;4.13;3.33;;;19.80;65.80;;;;;;5003550;28;20026;-93
2021/06/11 03:00:10;;;;;;;3.63;3.00;;;19.70;65.90;;;;;;5033079;28;20148;-92
2021/06/11 03:02:42;;;;;;;3.80;3.40;;;19.70;65.70;;;;;;5033021;28;20065;-91
2021/06/11 03:05:10;;;;;;;3.53;2.95;;;19.60;65.70;;;;;;5015187;28;20096;-91
2021/06/11 03:07:37;;;;;;;3.75;3.17;;;19.60;65.70;;;;;;5031896;28;20380;-91
2021/06/11 03:10:08;;;;;;;4.00;3.05;;;19.60;65.80;;;;;;5014746;28;20033;-87
2021/06/11 03:12:35;;;;;;;4.00;3.38;;;19.60;65.80;;;;;;5032290;28;20018;-90
2021/06/11 03:15:01;;;;;;;5.03;3.75;;;19.60;65.80;;;;;;5015270;28;20049;-94
2021/06/11 03:17:37;;;;;;;4.35;3.70;;;19.60;65.80;;;;;;5032514;28;20207;-94
2021/06/11 03:20:08;;;;;;;5.22;4.05;;;19.50;65.90;;;;;;5015420;28;20078;-94
2021/06/11 03:22:37;;;;;;;6.28;4.32;;;19.60;65.90;;;;;;5032446;28;20029;-95
2021/06/11 03:25:02;;;;;;;4.50;4.03;;;19.60;65.90;;;;;;5032473;28;20407;-94
2021/06/11 03:27:46;;;;;;;4.55;4.13;;;19.60;65.80;;;;;;5014723;28;20105;-93
2021/06/11 03:30:15;;;;;;;4.72;4.22;;;19.60;65.90;;;;;;5026328;28;20092;-93
2021/06/11 03:32:46;;;;;;;9.27;4.22;;;19.50;65.80;;;;;;5022138;28;20017;-96
2021/06/11 03:35:31;;;;;;;6.43;5.43;;;19.40;66.10;;;;;;5022625;28;20025;-96
2021/06/11 03:38:00;;;;;;;6.78;5.57;;;19.40;66.50;;;;;;5032090;28;20033;-92
2021/06/11 03:40:31;;;;;;;6.78;5.15;;;19.30;66.90;;;;;;5032580;28;20168;-93
2021/06/11 03:42:58;;;;;;;6.13;4.53;;;19.30;67.20;;;;;;5032473;28;20021;-90
2021/06/11 03:45:24;;;;;;;5.03;4.30;;;19.30;67.20;;;;;;5032637;28;20319;-93
2021/06/11 03:47:53;;;;;;;5.82;4.95;;;19.30;67.20;;;;;;5036274;28;20030;-93
2021/06/11 03:50:21;;;;;;;5.55;4.32;;;19.30;67.30;;;;;;5036877;28;20029;-93
2021/06/11 03:52:49;;;;;;;5.55;4.82;;;19.30;68.00;;;;;;5036331;28;20439;-92
2021/06/11 03:55:21;;;;;;;5.97;5.38;;;19.30;67.40;;;;;;5036118;28;20025;-91
2021/06/11 03:58:17;;;;;;;4.70;4.20;;;19.40;67.30;;;;;;5036431;28;20022;-94
2021/06/11 04:00:46;;;;;;;5.45;4.70;;;19.40;67.10;;;;;;4987221;28;20049;-91
2021/06/11 04:03:12;;;;;;;6.45;4.70;;;19.40;67.00;;;;;;5016766;28;20018;-94
2021/06/11 04:05:38;;;;;;;5.32;4.60;;;19.40;67.10;;;;;;5017900;28;20048;-96
2021/06/11 04:08:06;;;;;;;5.50;4.90;;;19.40;67.20;;;;;;5010909;28;20018;-96
2021/06/11 04:10:40;;;;;;;5.18;4.35;;;19.40;67.20;;;;;;5019305;28;20022;-95
2021/06/11 04:13:18;;;;;;;5.75;4.75;;;19.50;67.30;;;;;;5036271;28;20064;-95
2021/06/11 04:15:48;;;;;;;6.32;5.15;;;19.50;67.20;;;;;;5018769;28;20072;-95
2021/06/11 04:18:23;;;;;;;6.97;4.82;;;19.60;67.00;;;;;;5035711;28;20026;-95
2021/06/11 04:20:53;;;;;;;6.45;5.38;;;19.60;67.00;;;;;;5036785;28;20029;-96
2021/06/11 04:23:23;;;;;;;6.00;4.68;;;19.60;67.10;;;;;;5036001;28;20580;-96
2021/06/11 04:25:51;;;;;;;6.65;5.03;;;19.60;67.10;;;;;;5019048;28;20029;-95
2021/06/11 04:28:18;;;;;;;7.40;4.95;;;19.60;67.20;;;;;;5037918;28;20022;-96
2021/06/11 04:30:44;;;;;;;5.68;4.95;;;19.60;67.20;;;;;;5037061;28;20037;-95
2021/06/11 04:33:24;;;;;;;6.72;4.65;;;19.60;67.20;;;;;;5037247;28;20029;-96
2021/06/11 04:35:50;;;;;;;5.75;4.88;;;19.70;67.20;;;;;;5037227;28;20395;-96
2021/06/11 04:38:16;;;;;;;7.18;4.78;;;19.70;67.00;;;;;;5036425;28;20099;-96
2021/06/11 04:40:42;;;;;;;5.68;4.93;;;19.80;67.00;;;;;;5018289;28;20415;-95
2021/06/11 04:43:08;;;;;;;5.90;4.63;;;19.90;67.00;;;;;;5031656;28;20021;-93
2021/06/11 04:45:35;;;;;;;5.78;4.53;;;19.90;66.80;;;;;;5022313;28;20021;-96
2021/06/11 04:48:01;;;;;;;6.03;4.65;;;20.00;67.00;;;;;;5019681;28;20032;-91
2021/06/11 04:50:27;;;;;;;6.57;4.85;;;20.00;66.90;;;;;;5035760;28;20060;-95
2021/06/11 04:52:53;;;;;;;5.75;4.68;;;20.30;66.60;;;;;;5036588;28;20025;-96
2021/06/11 04:55:19;;;;;;;5.30;4.18;;;20.80;65.40;;;;;;5035905;28;20083;-96
2021/06/11 04:57:45;;;;;;;6.03;4.95;;;21.30;64.30;;;;;;5017846;28;20028;-94
2021/06/11 05:00:11;;;;;;;4.85;3.85;;;21.80;63.20;;;;;;5018236;28;20033;-93
2021/06/11 05:02:41;;;;;;;5.25;3.63;;;22.20;62.30;;;;;;5027254;28;20033;-94
2021/06/11 05:05:06;;;;;;;6.10;4.50;;;22.60;61.30;;;;;;5050414;28;20040;-96
2021/06/11 05:07:34;;;;;;;5.53;4.25;;;22.90;60.40;;;;;;5035108;28;20021;-96
2021/06/11 05:10:00;;;;;;;5.57;4.57;;;23.20;59.90;;;;;;5015663;28;20026;-95
2021/06/11 05:12:25;;;;;;;5.28;3.80;;;23.40;59.30;;;;;;5034494;28;20049;-95
2021/06/11 05:14:51;;;;;;;4.57;3.92;;;23.60;58.90;;;;;;5037374;28;20171;-96
2021/06/11 05:17:16;;;;;;;5.60;4.15;;;23.80;58.60;;;;;;5055325;28;20023;-96
2021/06/11 05:19:42;;;;;;;5.93;4.60;;;23.90;58.20;;;;;;5039162;28;20879;-96
2021/06/11 05:22:07;;;;;;;5.18;4.50;;;24.10;58.00;;;;;;5036308;28;20480;-94
2021/06/11 05:24:33;;;;;;;5.75;4.57;;;24.20;57.70;;;;;;5028007;28;20060;-96
2021/06/11 05:26:59;;;;;;;6.00;4.90;;;24.30;57.70;;;;;;5026665;28;20017;-96
2021/06/11 05:29:26;;;;;;;6.38;5.05;;;24.40;57.60;;;;;;5044567;28;20017;-95
2021/06/11 05:31:52;;;;;;;7.30;5.70;;;24.50;57.30;;;;;;5038442;28;20033;-89
2021/06/11 05:34:17;;;;;;;7.30;5.63;;;24.50;57.30;;;;;;5041311;28;20064;-89
2021/06/11 05:36:43;;;;;;;7.53;4.80;;;24.50;57.40;;;;;;5046927;28;20039;-93
2021/06/11 05:39:09;;;;;;;5.43;4.63;;;24.60;57.40;;;;;;5026300;28;20102;-92
2021/06/11 05:41:34;;;;;;;7.22;4.90;;;24.70;57.40;;;;;;5037958;28;20048;-94
2021/06/11 05:44:00;;;;;;;6.80;5.25;;;24.60;57.50;;;;;;5036905;28;20013;-94
2021/06/11 05:46:26;;;;;;;6.03;5.00;;;24.50;57.80;;;;;;5023708;28;20021;-93
2021/06/11 05:48:51;;;;;;;5.88;5.07;;;24.50;58.00;;;;;;5042147;28;20017;-95
2021/06/11 05:51:17;;;;;;;5.32;4.32;;;24.30;58.10;;;;;;5040890;28;20071;-94
2021/06/11 05:53:43;;;;;;;8.32;4.65;;;24.20;58.40;;;;;;5013713;28;20029;-95
2021/06/11 05:56:09;;;;;;;5.55;3.92;;;24.20;58.50;;;;;;5046524;28;20041;-95
2021/06/11 05:58:35;;;;;;;4.07;3.38;;;24.20;58.70;;;;;;5036102;28;20013;-96
2021/06/11 06:01:01;;;;;;;5.72;4.40;;;24.20;58.70;;;;;;5016566;28;20068;-96
2021/06/11 06:03:27;;;;;;;4.65;3.85;;;24.20;58.70;;;;;;5037753;28;20025;-96
2021/06/11 06:05:53;;;;;;;4.38;3.78;;;24.30;58.70;;;;;;5033958;28;20033;-91
2021/06/11 06:08:20;;;;;;;5.22;4.10;;;24.20;58.50;;;;;;5031062;28;20587;-93
2021/06/11 06:10:45;;;;;;;4.60;3.80;;;24.10;58.70;;;;;;5033850;28;20021;-91
2021/06/11 06:13:11;;;;;;;6.05;4.53;;;24.00;58.90;;;;;;5015890;28;20480;-92
2021/06/11 06:15:36;;;;;;;5.68;4.88;;;24.10;59.00;;;;;;5033715;28;20034;-90
2021/06/11 06:18:02;;;;;;;5.78;4.47;;;24.10;58.90;;;;;;5031974;28;20348;-92
2021/06/11 06:20:28;;;;;;;4.80;3.72;;;24.10;58.80;;;;;;5017060;28;20070;-88
2021/06/11 06:22:53;;;;;;;5.20;4.35;;;24.20;58.90;;;;;;5034183;28;20025;-91
2021/06/11 06:25:19;;;;;;;4.95;4.07;;;24.20;58.70;;;;;;5034829;28;20160;-93
2021/06/11 06:27:45;;;;;;;5.47;4.45;;;24.20;58.90;;;;;;5033109;28;20025;-91
2021/06/11 06:30:14;;;;;;;5.47;3.33;;;24.40;58.70;;;;;;5033314;28;20025;-90
2021/06/11 06:32:41;;;;;;;3.30;2.63;;;24.50;58.50;;;;;;5011779;28;20026;-89
2021/06/11 06:35:08;;;;;;;4.50;3.03;;;24.50;58.00;;;;;;5015223;28;20034;-94
2021/06/11 06:37:35;;;;;;;3.85;3.00;;;24.60;57.80;;;;;;5014059;28;20017;-88
2021/06/11 06:40:00;;;;;;;3.10;2.47;;;24.60;57.40;;;;;;5031191;28;20380;-89
2021/06/11 06:42:27;;;;;;;3.40;2.55;;;24.80;57.20;;;;;;5031373;28;20025;-90
2021/06/11 06:44:52;;;;;;;3.78;2.83;;;25.00;56.90;;;;;;5032383;28;20025;-90
2021/06/11 06:47:18;;;;;;;2.30;2.05;;;25.00;56.70;;;;;;5031857;28;20026;-89
2021/06/11 06:49:44;;;;;;;3.58;2.78;;;25.00;56.50;;;;;;5031793;28;20032;-90
2021/06/11 06:52:10;;;;;;;4.00;2.58;;;25.10;56.30;;;;;;5014248;28;20037;-88
2021/06/11 06:54:36;;;;;;;3.58;2.65;;;25.20;56.00;;;;;;5029896;28;20033;-87
2021/06/11 06:57:02;;;;;;;4.80;4.00;;;25.20;55.80;;;;;;5031127;28;20408;-88
2021/06/11 06:59:27;;;;;;;4.28;3.45;;;25.20;55.70;;;;;;5018827;28;20026;-86
2021/06/11 07:02:00;;;;;;;3.40;2.80;;;25.20;55.90;;;;;;5030407;28;20032;-87
2021/06/11 07:04:29;;;;;;;3.70;2.83;;;25.40;56.00;;;;;;5030028;28;20088;-86
2021/06/11 07:06:54;;;;;;;4.65;3.00;;;25.50;55.50;;;;;;5030550;28;20025;-87
2021/06/11 07:09:20;;;;;;;3.58;2.85;;;25.60;55.40;;;;;;5029651;28;20198;-87
2021/06/11 07:11:49;;;;;;;3.42;2.72;;;25.60;55.10;;;;;;5031056;28;20082;-87
2021/06/11 07:14:19;;;;;;;4.55;3.17;;;25.60;55.00;;;;;;5013268;28;20029;-87
2021/06/11 07:16:45;;;;;;;3.30;2.97;;;25.70;55.00;;;;;;5012609;28;20117;-87
2021/06/11 07:19:11;;;;;;;5.18;3.30;;;25.60;54.80;;;;;;5018530;28;20107;-87
2021/06/11 07:21:37;;;;;;;3.85;2.95;;;25.70;54.70;;;;;;5029719;28;20068;-88
2021/06/11 07:24:04;;;;;;;3.90;3.50;;;25.70;54.50;;;;;;5030764;28;20038;-90
2021/06/11 07:26:30;;;;;;;4.72;3.65;;;25.80;54.50;;;;;;5030218;28;20460;-88
2021/06/11 07:28:56;;;;;;;4.93;3.75;;;25.80;54.30;;;;;;5029549;28;20025;-90
2021/06/11 07:31:22;;;;;;;6.30;3.80;;;25.90;54.30;;;;;;5015600;28;20044;-89
2021/06/11 07:33:48;;;;;;;4.07;3.05;;;26.00;54.10;;;;;;5031047;28;20499;-91
2021/06/11 07:36:13;;;;;;;4.28;3.50;;;26.10;54.20;;;;;;5012768;28;20026;-89
2021/06/11 07:38:39;;;;;;;6.00;3.72;;;26.10;54.00;;;;;;5030615;28;20022;-89
2021/06/11 07:41:05;;;;;;;4.45;3.17;;;26.20;53.70;;;;;;5030137;28;20021;-89
2021/06/11 07:43:31;;;;;;;4.80;3.45;;;26.40;53.70;;;;;;5013185;28;20018;-88
2021/06/11 07:45:57;;;;;;;4.90;3.22;;;26.40;53.60;;;;;;5029692;28;20388;-87
2021/06/11 07:48:23;;;;;;;6.70;5.65;;;26.50;53.70;;;;;;5030215;28;20030;-90
2021/06/11 07:50:49;;;;;;;5.80;4.40;;;26.40;53.70;;;;;;5031520;28;20052;-91
2021/06/11 07:53:15;;;;;;;6.47;5.13;;;26.30;53.90;;;;;;5031762;28;20025;-89
2021/06/11 07:55:41;;;;;;;6.82;4.93;;;26.40;54.00;;;;;;5030928;28;20029;-89
2021/06/11 07:58:07;;;;;;;6.43;5.25;;;26.60;54.00;;;;;;5030455;28;20048;-88
2021/06/11 08:00:32;;;;;;;6.53;5.10;;;26.60;53.50;;;;;;5030122;28;20022;-90
2021/06/11 08:02:59;;;;;;;5.18;3.83;;;26.60;53.50;;;;;;5029651;28;20060;-89
2021/06/11 08:05:27;;;;;;;10.05;7.10;;;26.70;53.50;;;;;;5030154;28;20013;-88
2021/06/11 08:07:53;;;;;;;6.35;5.13;;;26.50;53.20;;;;;;5029946;28;20037;-89
2021/06/11 08:10:20;;;;;;;7.53;5.57;;;26.30;53.50;;;;;;5030169;28;20017;-88
2021/06/11 08:12:46;;;;;;;7.15;5.90;;;26.40;53.80;;;;;;5029791;28;20087;-88
2021/06/11 08:15:13;;;;;;;8.25;5.95;;;26.60;53.70;;;;;;5029687;28;20038;-87
2021/06/11 08:17:40;;;;;;;7.22;5.97;;;26.70;53.50;;;;;;5029818;28;20018;-88
2021/06/11 08:20:07;;;;;;;8.13;6.45;;;26.60;53.40;;;;;;5030194;28;20030;-87
2021/06/11 08:22:33;;;;;;;8.07;5.90;;;26.50;53.60;;;;;;5030262;28;20022;-89
2021/06/11 08:24:59;;;;;;;7.25;5.80;;;26.30;53.80;;;;;;5030524;28;20112;-86
2021/06/11 08:27:24;;;;;;;7.53;4.93;;;26.30;54.00;;;;;;5029243;28;20079;-90
2021/06/11 08:29:50;;;;;;;8.20;6.63;;;26.20;54.10;;;;;;5030251;28;20028;-87
2021/06/11 08:32:15;;;;;;;8.32;6.22;;;26.20;54.20;;;;;;5031014;28;20036;-88
2021/06/11 08:34:43;;;;;;;6.20;5.40;;;26.10;54.20;;;;;;5032628;28;20381;-88
2021/06/11 08:37:09;;;;;;;7.82;5.57;;;26.00;54.40;;;;;;5015013;28;20086;-87
2021/06/11 08:39:35;;;;;;;6.82;5.55;;;26.00;54.30;;;;;;5033420;28;20109;-89
2021/06/11 08:42:06;;;;;;;10.23;7.88;;;26.10;54.40;;;;;;5034689;28;20019;-86
2021/06/11 08:44:32;;;;;;;6.68;5.65;;;26.10;54.10;;;;;;5032197;28;20473;-85
2021/06/11 08:46:57;;;;;;;5.25;4.65;;;26.00;54.50;;;;;;5032782;28;20021;-86
2021/06/11 08:49:24;;;;;;;6.22;4.80;;;25.90;54.50;;;;;;5032356;28;20041;-86
2021/06/11 08:51:55;;;;;;;5.38;4.30;;;25.90;54.70;;;;;;5032785;28;20408;-87
2021/06/11 08:54:21;;;;;;;6.35;5.43;;;26.00;54.60;;;;;;5032644;28;20376;-85
2021/06/11 08:56:49;;;;;;;8.98;5.45;;;26.20;54.40;;;;;;5033099;28;20021;-88
2021/06/11 08:59:15;;;;;;;6.43;4.68;;;26.20;54.20;;;;;;5032561;28;20097;-87
2021/06/11 09:01:41;;;;;;;7.18;5.57;;;26.30;54.30;;;;;;5031897;28;20549;-87
2021/06/11 09:04:07;;;;;;;5.13;4.18;;;26.40;53.80;;;;;;5021442;28;20473;-86
2021/06/11 09:06:33;;;;;;;5.10;3.88;;;26.40;53.90;;;;;;5032217;28;20037;-86
2021/06/11 09:09:02;;;;;;;9.02;6.95;;;26.40;53.70;;;;;;5031893;28;20105;-85
2021/06/11 09:11:33;;;;;;;8.10;5.50;;;26.30;53.90;;;;;;5031965;28;20148;-87
2021/06/11 09:14:07;;;;;;;5.57;4.15;;;26.30;54.30;;;;;;5032198;28;20025;-86
2021/06/11 09:16:44;;;;;;;6.60;5.00;;;26.40;54.00;;;;;;5032094;28;20029;-87
2021/06/11 09:19:18;;;;;;;7.78;5.45;;;26.60;53.70;;;;;;5021962;28;20041;-86
2021/06/11 09:21:51;;;;;;;7.50;6.10;;;26.70;53.60;;;;;;5012384;28;20034;-85
2021/06/11 09:24:24;;;;;;;6.05;5.13;;;26.80;53.50;;;;;;5012349;28;20040;-87
2021/06/11 09:27:03;;;;;;;8.70;7.53;;;26.70;53.60;;;;;;4998227;28;20032;-84
2021/06/11 09:29:32;;;;;;;9.10;7.47;;;26.80;53.40;;;;;;4993234;28;20076;-85
2021/06/11 09:32:16;;;;;;;6.70;5.88;;;26.80;53.30;;;;;;5011743;28;20022;-85
2021/06/11 09:34:43;;;;;;;8.27;6.70;;;26.90;53.60;;;;;;5012053;28;20504;-86
2021/06/11 09:37:11;;;;;;;7.15;5.97;;;26.80;53.50;;;;;;5005073;28;20022;-87
2021/06/11 09:39:44;;;;;;;9.15;6.57;;;27.10;53.50;;;;;;5007197;28;20034;-85
2021/06/11 09:42:11;;;;;;;11.45;7.97;;;27.20;53.00;;;;;;5011202;28;20508;-85
2021/06/11 09:44:37;;;;;;;5.00;4.03;;;27.20;52.70;;;;;;5003113;28;20034;-86
2021/06/11 09:47:03;;;;;;;6.80;5.45;;;27.10;52.80;;;;;;5011040;28;20396;-86
2021/06/11 09:49:41;;;;;;;5.82;4.88;;;27.00;52.90;;;;;;5006726;28;20196;-87
2021/06/11 09:52:10;;;;;;;5.80;4.93;;;27.10;53.00;;;;;;5002448;28;20030;-85
2021/06/11 09:54:36;;;;;;;5.55;4.90;;;27.30;52.60;;;;;;5002235;28;20033;-86
2021/06/11 09:57:24;;;;;;;7.28;6.00;;;27.50;52.50;;;;;;5009984;28;20028;-86
2021/06/11 09:59:50;;;;;;;5.40;4.53;;;27.40;52.10;;;;;;5011012;28;20088;-86
2021/06/11 10:02:18;;;;;;;5.30;4.45;;;27.40;52.10;;;;;;5006433;28;20057;-87
2021/06/11 10:04:44;;;;;;;4.35;3.72;;;27.50;52.10;;;;;;4992905;28;20037;-85
2021/06/11 10:07:12;;;;;;;7.43;5.47;;;27.60;51.90;;;;;;4991497;28;20517;-86
2021/06/11 10:09:38;;;;;;;7.82;6.97;;;27.60;51.30;;;;;;5010696;28;20030;-85
2021/06/11 10:12:05;;;;;;;5.72;4.25;;;27.30;51.30;;;;;;5010789;28;20037;-85
2021/06/11 10:14:31;;;;;;;7.93;5.20;;;27.30;51.80;;;;;;4991516;28;20038;-87
2021/06/11 10:16:57;;;;;;;5.85;4.22;;;27.20;51.80;;;;;;5009958;28;20053;-85
2021/06/11 10:19:27;;;;;;;6.88;5.90;;;27.50;51.70;;;;;;4994364;28;20080;-87
2021/06/11 10:21:53;;;;;;;9.30;8.32;;;27.60;51.50;;;;;;4985584;28;20041;-86
2021/06/11 10:24:22;;;;;;;7.45;6.57;;;27.60;51.20;;;;;;5009592;28;20022;-84
2021/06/11 10:26:49;;;;;;;6.18;4.55;;;27.40;51.50;;;;;;4989715;28;20022;-87
2021/06/11 10:29:20;;;;;;;6.53;5.35;;;27.50;51.70;;;;;;5016874;28;20061;-85
2021/06/11 10:31:46;;;;;;;6.17;4.73;;;27.60;51.40;;;;;;4991303;28;20440;-86
2021/06/11 10:34:12;;;;;;;6.85;5.68;;;27.60;51.30;;;;;;5010043;28;20300;-84
2021/06/11 10:36:44;;;;;;;5.57;4.50;;;27.90;51.10;;;;;;5011135;28;20045;-85
2021/06/11 10:39:09;;;;;;;7.60;6.53;;;28.10;50.90;;;;;;4991911;28;20374;-86
2021/06/11 10:41:55;;;;;;;5.70;4.93;;;28.10;50.50;;;;;;4992386;28;20085;-86
2021/06/11 10:44:45;;;;;;;6.82;5.57;;;28.00;50.60;;;;;;5009496;28;20572;-84
2021/06/11 10:47:17;;;;;;;6.72;5.50;;;28.10;50.60;;;;;;5009719;28;20026;-85
2021/06/11 10:50:01;;;;;;;7.90;6.70;;;28.10;50.40;;;;;;4994517;28;20481;-84
2021/06/11 10:52:49;;;;;;;5.70;5.07;;;28.20;50.30;;;;;;5001398;28;20033;-85
2021/06/11 10:55:16;;;;;;;5.60;5.00;;;28.30;50.40;;;;;;5012512;28;20033;-87
2021/06/11 10:57:46;;;;;;;7.20;5.70;;;28.50;50.00;;;;;;5011950;28;20885;-88
2021/06/11 11:00:23;;;;;;;5.63;4.50;;;28.40;49.70;;;;;;5015373;28;20116;-89
2021/06/11 11:02:51;;;;;;;3.15;2.85;;;28.40;50.00;;;;;;5025722;28;20034;-87
2021/06/11 11:05:31;;;;;;;4.32;3.50;;;28.50;50.20;;;;;;4992557;28;20061;-87
2021/06/11 11:07:58;;;;;;;4.25;3.40;;;28.60;50.10;;;;;;5009967;28;20026;-88
2021/06/11 11:10:44;;;;;;;4.88;4.15;;;28.70;49.90;;;;;;5010749;28;20543;-89
2021/06/11 11:13:13;;;;;;;6.97;5.25;;;28.70;49.50;;;;;;5006253;28;20548;-88
2021/06/11 11:15:48;;;;;;;6.38;4.50;;;28.70;49.40;;;;;;5010545;28;20029;-88
2021/06/11 11:18:14;;;;;;;4.82;4.10;;;28.70;49.40;;;;;;5012790;28;20033;-88
2021/06/11 11:20:43;;;;;;;5.88;4.43;;;28.70;49.30;;;;;;5030258;28;20033;-91
2021/06/11 11:23:12;;;;;;;5.85;3.83;;;28.80;49.00;;;;;;5031432;28;20017;-87
2021/06/11 11:25:39;;;;;;;5.03;4.00;;;28.90;49.10;;;;;;5030344;28;20022;-88
2021/06/11 11:28:06;;;;;;;4.50;3.50;;;28.80;48.90;;;;;;5008843;28;20034;-87
2021/06/11 11:30:33;;;;;;;4.78;4.18;;;28.70;48.90;;;;;;5028861;28;20043;-87
2021/06/11 11:33:01;;;;;;;5.05;3.22;;;28.50;48.80;;;;;;5028694;28;20037;-87
2021/06/11 11:35:28;;;;;;;6.95;4.30;;;28.50;48.80;;;;;;5025772;28;20048;-89
2021/06/11 11:37:55;;;;;;;52.08;44.53;;;28.60;48.80;;;;;;5030208;28;20087;-94
2021/06/11 11:40:24;;;;;;;14.20;12.70;;;28.80;48.70;;;;;;5032144;28;20026;-88
2021/06/11 11:42:50;;;;;;;8.90;6.93;;;29.00;48.90;;;;;;5031639;28;20037;-89
2021/06/11 11:45:16;;;;;;;4.95;4.28;;;29.20;48.20;;;;;;5029394;28;20361;-88
2021/06/11 11:47:43;;;;;;;4.90;4.28;;;29.20;48.00;;;;;;5027078;28;20133;-86
2021/06/11 11:50:09;;;;;;;4.75;3.80;;;29.10;48.00;;;;;;5029365;28;20445;-88
2021/06/11 11:52:35;;;;;;;5.35;3.70;;;29.20;48.50;;;;;;5029215;28;20117;-88
2021/06/11 11:55:01;;;;;;;3.47;2.83;;;29.40;47.60;;;;;;5029428;28;20476;-87
2021/06/11 11:57:28;;;;;;;3.65;2.60;;;29.60;47.40;;;;;;5029423;28;20026;-91
2021/06/11 11:59:54;;;;;;;3.08;2.20;;;29.70;46.80;;;;;;5032019;28;20056;-93
2021/06/11 12:02:19;;;;;;;3.35;3.05;;;29.90;46.70;;;;;;5029414;28;20041;-88
2021/06/11 12:04:45;;;;;;;3.95;3.55;;;30.00;46.30;;;;;;5022124;28;21250;-87
2021/06/11 12:07:11;;;;;;;4.28;3.70;;;30.10;46.00;;;;;;5012261;28;20548;-88
2021/06/11 12:09:37;;;;;;;3.10;2.75;;;30.20;45.70;;;;;;5033921;28;20028;-89
2021/06/11 12:12:03;;;;;;;3.28;2.95;;;30.00;45.50;;;;;;5037287;28;20048;-94
2021/06/11 12:14:28;;;;;;;3.15;2.83;;;29.80;45.70;;;;;;5036021;28;20033;-94
2021/06/11 12:16:54;;;;;;;3.38;2.58;;;29.60;45.70;;;;;;5036614;28;20030;-92
2021/06/11 12:19:20;;;;;;;3.33;2.92;;;29.60;45.90;;;;;;5035866;28;20075;-92
2021/06/11 12:21:45;;;;;;;3.33;2.70;;;29.80;46.30;;;;;;5036249;28;20121;-93
2021/06/11 12:24:11;;;;;;;3.28;2.88;;;29.80;45.30;;;;;;5036204;28;20124;-93
2021/06/11 12:26:37;;;;;;;2.75;2.50;;;29.90;45.30;;;;;;5018708;28;20053;-94
2021/06/11 12:29:03;;;;;;;3.80;2.90;;;30.20;45.40;;;;;;5036009;28;20037;-94
2021/06/11 12:31:30;;;;;;;4.13;3.05;;;30.50;45.00;;;;;;5036332;28;20077;-92
2021/06/11 12:33:56;;;;;;;3.78;2.92;;;30.50;44.70;;;;;;5036337;28;20021;-94
2021/06/11 12:36:22;;;;;;;3.83;3.35;;;30.40;44.80;;;;;;5015960;28;20041;-94
2021/06/11 12:38:48;;;;;;;4.70;4.03;;;30.20;45.20;;;;;;5017541;28;20380;-93
2021/06/11 12:41:15;;;;;;;3.65;2.70;;;30.00;45.20;;;;;;5035562;28;20081;-94
2021/06/11 12:46:25;;;;;;;4.10;3.33;;;29.80;45.60;;;;;;5035708;28;20040;-93
2021/06/11 12:48:52;;;;;;;4.28;3.20;;;29.60;45.60;;;;;;5034701;28;20021;-92
2021/06/11 12:51:18;;;;;;;4.82;3.10;;;29.50;45.60;;;;;;5035246;28;20481;-93
2021/06/11 12:53:44;;;;;;;3.38;2.78;;;29.50;45.60;;;;;;5033545;28;20112;-93